Aérodrome :
LOGIN :

S'inscrire | Disclaimer

   EN    FR    IT 

 










Légende :    VFR   VFR Marginal   IFR   IFR Intensif   IFR Très Intensif
Visi : 
Plafond : 
>= 8 km
>= 3000ft
5 à 8 km
1000 à 3000 ft
1500m à 5 km
500 à 1000 ft
800 à 1500m
200 à 500 ft
< 800m
< 200 ft
Symboles :   Orages  Brouillard  Fortes neiges  Fortes précipitations  Vent > 20 kt
SIGMETs :   Divers  Orages  Givrage  Turbulence  Onde Orograph.  Cendres Volcan.






- Altitude de l'aérodrome : 17 ft
- Code IATA : GRQ


EHGG - Groningen Eelde

DERNIER METAR :
  • 221625Z AUTO 31002KT 9999 BKN031 06/05 Q1035 TEMPO BKN009

METARs EXPIRÉS :
  • 221555Z AUTO 33005KT 300V360 9999 SCT010 BKN012 OVC015 07/05 Q1035 TEMPO BKN016
  • 221525Z AUTO 32003KT 9999 BKN010 07/05 Q1035 NOSIG
  • 221455Z AUTO 35004KT 310V030 9999 FEW012 BKN017 OVC020 07/05 Q1035 TEMPO BKN012
  • 221425Z AUTO 35006KT 310V040 9999 BKN012 OVC014 07/05 Q1035 TEMPO BKN008
  • 221355Z AUTO 34007KT 300V010 9999 SCT009 BKN010 OVC013 08/06 Q1035 TEMPO BKN008

TAF TAF EHGG
Valide du 22 à 12h jusqu'au 23 à 18h UTC


221109Z 2212/2318 33007KT 9999 SCT015
TEMPO 2212/2217 BKN008
BECMG 2217/2220 VRB03KT 2000 BCFG BR
BECMG 2220/2223 0300 FG VV000
BECMG 2309/2312 21006KT 2000 BR -DZ BKN003
PROB30 2312/2317 6000 NSW BKN010



MET'MAP, la Météo Aéronautique d'un coup d'oeil ! - Copyright ORBIFLY Décembre 2007 - Disclaimer

ORBIFLY MET'MAP TEAM :

Programmation & Développement : Alexandra Zaïnal
Sur une idée originale de : Baudouin d'Aumeries
Assistance à la programmation : Marc-Olivier Méhu
Soutien technique & logistique : Manuel Goepfert

Contact : metmap@orbifly.com




SOURCES & CREDITS :

   NOAA